N20320 KJAX-KOPF
Flight info
| Callsign | N20320 |
|---|---|
| Flight time | 2h 42m |
| Altitude | 3500 |
| Route | VFF |
| Aircraft | C172/L-DOV/C |
Departure
| Time | 2026-04-24 22:30 |
|---|---|
| Airport | Jacksonville International Airport (KJAX) |
Arrival
| Time | 2026-04-25 01:12 |
|---|---|
| Airport | Miami-Opa Locka Executive Airport (KOPF) |
| Time | Latitude | Longitude | Altitude | Speed | Heading |
|---|---|---|---|---|---|
| 2026-04-24 22:16 | 30.49709 | -81.67847 | 29 ft | 0 kts | 102° |
| 2026-04-24 22:19 | 30.49709 | -81.67848 | 29 ft | 0 kts | 102° |
| 2026-04-24 22:21 | 30.49709 | -81.67847 | 29 ft | 2 kts | 102° |
| 2026-04-24 22:21 | 30.49717 | -81.67816 | 29 ft | 6 kts | 54° |
| 2026-04-24 22:21 | 30.49756 | -81.67796 | 29 ft | 6 kts | 12° |
| 2026-04-24 22:21 | 30.49806 | -81.67794 | 29 ft | 7 kts | 332° |
| 2026-04-24 22:22 | 30.49829 | -81.67836 | 29 ft | 6 kts | 277° |
| 2026-04-24 22:22 | 30.49837 | -81.67882 | 30 ft | 4 kts | 294° |
| 2026-04-24 22:22 | 30.49862 | -81.67906 | 31 ft | 6 kts | 345° |
| 2026-04-24 22:22 | 30.49927 | -81.67933 | 31 ft | 11 kts | 342° |
| 2026-04-24 22:23 | 30.49991 | -81.67959 | 31 ft | 9 kts | 340° |
| 2026-04-24 22:23 | 30.50057 | -81.67986 | 31 ft | 8 kts | 342° |
| 2026-04-24 22:23 | 30.50070 | -81.67997 | 31 ft | 7 kts | 271° |
| 2026-04-24 22:23 | 30.50039 | -81.68063 | 31 ft | 12 kts | 248° |
| 2026-04-24 22:24 | 30.50009 | -81.68160 | 31 ft | 14 kts | 251° |
| 2026-04-24 22:24 | 30.49976 | -81.68270 | 31 ft | 14 kts | 252° |
| 2026-04-24 22:24 | 30.49946 | -81.68366 | 31 ft | 12 kts | 253° |
| 2026-04-24 22:24 | 30.49922 | -81.68445 | 32 ft | 9 kts | 253° |
| 2026-04-24 22:25 | 30.49900 | -81.68519 | 32 ft | 10 kts | 249° |
| 2026-04-24 22:25 | 30.49874 | -81.68602 | 32 ft | 12 kts | 248° |
| 2026-04-24 22:25 | 30.49846 | -81.68695 | 32 ft | 12 kts | 250° |
| 2026-04-24 22:25 | 30.49822 | -81.68775 | 32 ft | 9 kts | 248° |
| 2026-04-24 22:26 | 30.49802 | -81.68838 | 32 ft | 5 kts | 253° |
| 2026-04-24 22:26 | 30.49781 | -81.68909 | 32 ft | 12 kts | 254° |
| 2026-04-24 22:26 | 30.49756 | -81.68990 | 33 ft | 10 kts | 250° |
| 2026-04-24 22:26 | 30.49731 | -81.69071 | 33 ft | 11 kts | 253° |
| 2026-04-24 22:27 | 30.49702 | -81.69165 | 33 ft | 12 kts | 252° |
| 2026-04-24 22:27 | 30.49673 | -81.69259 | 33 ft | 13 kts | 252° |
| 2026-04-24 22:27 | 30.49642 | -81.69362 | 33 ft | 14 kts | 253° |
| 2026-04-24 22:27 | 30.49607 | -81.69474 | 33 ft | 15 kts | 255° |
| 2026-04-24 22:28 | 30.49571 | -81.69593 | 33 ft | 16 kts | 249° |
| 2026-04-24 22:28 | 30.49533 | -81.69719 | 33 ft | 17 kts | 250° |
| 2026-04-24 22:28 | 30.49493 | -81.69847 | 33 ft | 16 kts | 254° |
| 2026-04-24 22:28 | 30.49516 | -81.69938 | 33 ft | 13 kts | 339° |
| 2026-04-24 22:29 | 30.49674 | -81.69828 | 33 ft | 33 kts | 72° |
| 2026-04-24 22:29 | 30.49802 | -81.69432 | 66 ft | 64 kts | 75° |
| 2026-04-24 22:29 | 30.49964 | -81.68919 | 217 ft | 71 kts | 75° |
| 2026-04-24 22:30 | 30.50130 | -81.68386 | 415 ft | 72 kts | 76° |
| 2026-04-24 22:30 | 30.50236 | -81.68018 | 496 ft | 72 kts | 75° |
| 2026-04-24 22:30 | 30.50401 | -81.67500 | 643 ft | 66 kts | 77° |
| 2026-04-24 22:30 | 30.50582 | -81.66972 | 742 ft | 72 kts | 75° |
| 2026-04-24 22:31 | 30.50708 | -81.66408 | 916 ft | 74 kts | 99° |
| 2026-04-24 22:31 | 30.50552 | -81.65849 | 1123 ft | 69 kts | 118° |
| 2026-04-24 22:31 | 30.50278 | -81.65411 | 1294 ft | 67 kts | 132° |
| 2026-04-24 22:31 | 30.49951 | -81.65019 | 1448 ft | 68 kts | 133° |
| 2026-04-24 22:32 | 30.49629 | -81.64627 | 1668 ft | 66 kts | 132° |
| 2026-04-24 22:32 | 30.49310 | -81.64237 | 1834 ft | 68 kts | 133° |
| 2026-04-24 22:32 | 30.48977 | -81.63820 | 1951 ft | 73 kts | 131° |
| 2026-04-24 22:32 | 30.48637 | -81.63372 | 2086 ft | 75 kts | 133° |
| 2026-04-24 22:33 | 30.48259 | -81.62905 | 2166 ft | 82 kts | 134° |
| 2026-04-24 22:33 | 30.47873 | -81.62443 | 2367 ft | 80 kts | 134° |
| 2026-04-24 22:33 | 30.47488 | -81.61969 | 2538 ft | 82 kts | 135° |
| 2026-04-24 22:33 | 30.47090 | -81.61473 | 2657 ft | 84 kts | 134° |
| 2026-04-24 22:34 | 30.46710 | -81.60976 | 2893 ft | 84 kts | 133° |
| 2026-04-24 22:34 | 30.46307 | -81.60427 | 3016 ft | 100 kts | 131° |
| 2026-04-24 22:34 | 30.45854 | -81.59793 | 3011 ft | 107 kts | 132° |
| 2026-04-24 22:34 | 30.45374 | -81.59116 | 2993 ft | 109 kts | 132° |
| 2026-04-24 22:35 | 30.44890 | -81.58471 | 2991 ft | 106 kts | 132° |
| 2026-04-24 22:35 | 30.44423 | -81.57828 | 2992 ft | 103 kts | 133° |
| 2026-04-24 22:35 | 30.43856 | -81.57365 | 3012 ft | 98 kts | 152° |
| 2026-04-24 22:35 | 30.43299 | -81.56985 | 3240 ft | 89 kts | 151° |
| 2026-04-24 22:36 | 30.42780 | -81.56630 | 3417 ft | 85 kts | 151° |
| 2026-04-24 22:36 | 30.42286 | -81.56287 | 3595 ft | 81 kts | 149° |
| 2026-04-24 22:36 | 30.41808 | -81.55928 | 3719 ft | 85 kts | 149° |
| 2026-04-24 22:36 | 30.41293 | -81.55546 | 3567 ft | 88 kts | 149° |
| 2026-04-24 22:37 | 30.40816 | -81.55180 | 3512 ft | 79 kts | 149° |
| 2026-04-24 22:37 | 30.40311 | -81.54836 | 3513 ft | 88 kts | 159° |
| 2026-04-24 22:37 | 30.39709 | -81.54566 | 3528 ft | 97 kts | 160° |
| 2026-04-24 22:37 | 30.39044 | -81.54266 | 3530 ft | 109 kts | 160° |
| 2026-04-24 22:38 | 30.38320 | -81.53943 | 3531 ft | 112 kts | 160° |
| 2026-04-24 22:38 | 30.37601 | -81.53624 | 3525 ft | 110 kts | 161° |
| 2026-04-24 22:38 | 30.36890 | -81.53306 | 3531 ft | 109 kts | 160° |
| 2026-04-24 22:38 | 30.36182 | -81.52992 | 3525 ft | 108 kts | 160° |
| 2026-04-24 22:39 | 30.35480 | -81.52683 | 3525 ft | 108 kts | 160° |
| 2026-04-24 22:39 | 30.34774 | -81.52402 | 3522 ft | 107 kts | 164° |
| 2026-04-24 22:39 | 30.34066 | -81.52159 | 3529 ft | 107 kts | 165° |
| 2026-04-24 22:39 | 30.33345 | -81.51902 | 3529 ft | 109 kts | 163° |
| 2026-04-24 22:40 | 30.32615 | -81.51633 | 3528 ft | 111 kts | 164° |
| 2026-04-24 22:40 | 30.31880 | -81.51359 | 3528 ft | 111 kts | 163° |
| 2026-04-24 22:40 | 30.31140 | -81.51086 | 3532 ft | 112 kts | 164° |
| 2026-04-24 22:40 | 30.30399 | -81.50810 | 3529 ft | 112 kts | 163° |
| 2026-04-24 22:41 | 30.29658 | -81.50536 | 3531 ft | 114 kts | 164° |
| 2026-04-24 22:41 | 30.28880 | -81.50253 | 3530 ft | 120 kts | 163° |
| 2026-04-24 22:41 | 30.28077 | -81.49961 | 3518 ft | 120 kts | 163° |
| 2026-04-24 22:41 | 30.27292 | -81.49678 | 3522 ft | 117 kts | 163° |
| 2026-04-24 22:42 | 30.26514 | -81.49403 | 3523 ft | 117 kts | 163° |
| 2026-04-24 22:42 | 30.25749 | -81.49131 | 3513 ft | 112 kts | 163° |
| 2026-04-24 22:42 | 30.25009 | -81.48911 | 3514 ft | 109 kts | 167° |
| 2026-04-24 22:42 | 30.24268 | -81.48693 | 3512 ft | 111 kts | 167° |
| 2026-04-24 22:43 | 30.23523 | -81.48499 | 3522 ft | 110 kts | 166° |
| 2026-04-24 22:43 | 30.22771 | -81.48314 | 3513 ft | 109 kts | 168° |
| 2026-04-24 22:43 | 30.22027 | -81.48126 | 3513 ft | 109 kts | 168° |
| 2026-04-24 22:43 | 30.21294 | -81.47937 | 3511 ft | 109 kts | 167° |
| 2026-04-24 22:44 | 30.20557 | -81.47752 | 3509 ft | 108 kts | 168° |
| 2026-04-24 22:44 | 30.19829 | -81.47567 | 3508 ft | 107 kts | 167° |
| 2026-04-24 22:44 | 30.19098 | -81.47380 | 3513 ft | 108 kts | 167° |
| 2026-04-24 22:44 | 30.18365 | -81.47191 | 3512 ft | 108 kts | 167° |
| 2026-04-24 22:45 | 30.17624 | -81.47003 | 3514 ft | 110 kts | 167° |
| 2026-04-24 22:45 | 30.16875 | -81.46812 | 3516 ft | 110 kts | 168° |
| 2026-04-24 22:45 | 30.16128 | -81.46622 | 3515 ft | 109 kts | 167° |
| 2026-04-24 22:45 | 30.15396 | -81.46446 | 3509 ft | 108 kts | 167° |
| 2026-04-24 22:46 | 30.14660 | -81.46267 | 3508 ft | 106 kts | 167° |
| 2026-04-24 22:46 | 30.13952 | -81.46096 | 3513 ft | 105 kts | 167° |
| 2026-04-24 22:46 | 30.13234 | -81.45924 | 3518 ft | 106 kts | 168° |
| 2026-04-24 22:46 | 30.12512 | -81.45749 | 3525 ft | 107 kts | 168° |
| 2026-04-24 22:47 | 30.11778 | -81.45574 | 3531 ft | 109 kts | 168° |
| 2026-04-24 22:47 | 30.11030 | -81.45384 | 3527 ft | 111 kts | 167° |
| 2026-04-24 22:47 | 30.10267 | -81.45199 | 3493 ft | 113 kts | 167° |
| 2026-04-24 22:47 | 30.09492 | -81.45018 | 3492 ft | 113 kts | 167° |
| 2026-04-24 22:48 | 30.08726 | -81.44842 | 3497 ft | 111 kts | 172° |
| 2026-04-24 22:48 | 30.07978 | -81.44670 | 3481 ft | 107 kts | 171° |
| 2026-04-24 22:48 | 30.07265 | -81.44481 | 3488 ft | 105 kts | 168° |
| 2026-04-24 22:48 | 30.06558 | -81.44288 | 3469 ft | 100 kts | 175° |
| 2026-04-24 22:49 | 30.05894 | -81.44071 | 3494 ft | 101 kts | 164° |
| 2026-04-24 22:49 | 30.05192 | -81.43896 | 3479 ft | 104 kts | 166° |
| 2026-04-24 22:49 | 30.04479 | -81.43733 | 3493 ft | 106 kts | 168° |
| 2026-04-24 22:49 | 30.03748 | -81.43564 | 3495 ft | 107 kts | 167° |
| 2026-04-24 22:50 | 30.03015 | -81.43398 | 3491 ft | 107 kts | 167° |
| 2026-04-24 22:50 | 30.02293 | -81.43229 | 3491 ft | 106 kts | 167° |
| 2026-04-24 22:50 | 30.01577 | -81.43069 | 3496 ft | 104 kts | 167° |
| 2026-04-24 22:50 | 30.00862 | -81.42903 | 3491 ft | 105 kts | 168° |
| 2026-04-24 22:51 | 30.00155 | -81.42735 | 3495 ft | 102 kts | 167° |
| 2026-04-24 22:51 | 29.99446 | -81.42583 | 3484 ft | 105 kts | 167° |
| 2026-04-24 22:51 | 29.98735 | -81.42426 | 3496 ft | 104 kts | 168° |
| 2026-04-24 22:51 | 29.98017 | -81.42272 | 3489 ft | 104 kts | 166° |
| 2026-04-24 22:52 | 29.97301 | -81.42122 | 3494 ft | 105 kts | 168° |
| 2026-04-24 22:52 | 29.96589 | -81.41972 | 3494 ft | 103 kts | 167° |
| 2026-04-24 22:52 | 29.95876 | -81.41824 | 3505 ft | 107 kts | 167° |
| 2026-04-24 22:52 | 29.95133 | -81.41658 | 3499 ft | 110 kts | 167° |
| 2026-04-24 22:53 | 29.94380 | -81.41489 | 3503 ft | 111 kts | 167° |
| 2026-04-24 22:53 | 29.93626 | -81.41329 | 3501 ft | 109 kts | 167° |
| 2026-04-24 22:53 | 29.92891 | -81.41174 | 3498 ft | 108 kts | 167° |
| 2026-04-24 22:53 | 29.92153 | -81.41019 | 3502 ft | 108 kts | 167° |
| 2026-04-24 22:54 | 29.91409 | -81.40862 | 3497 ft | 109 kts | 168° |
| 2026-04-24 22:54 | 29.90675 | -81.40696 | 3497 ft | 107 kts | 167° |
| 2026-04-24 22:54 | 29.89946 | -81.40538 | 3494 ft | 107 kts | 167° |
| 2026-04-24 22:54 | 29.89218 | -81.40379 | 3493 ft | 106 kts | 167° |
| 2026-04-24 22:55 | 29.88498 | -81.40225 | 3493 ft | 105 kts | 166° |
| 2026-04-24 22:55 | 29.87771 | -81.40089 | 3485 ft | 106 kts | 168° |
| 2026-04-24 22:55 | 29.87052 | -81.39943 | 3495 ft | 105 kts | 166° |
| 2026-04-24 22:55 | 29.86337 | -81.39810 | 3490 ft | 104 kts | 168° |
| 2026-04-24 22:56 | 29.85622 | -81.39667 | 3490 ft | 105 kts | 167° |
| 2026-04-24 22:56 | 29.84899 | -81.39527 | 3493 ft | 106 kts | 168° |
| 2026-04-24 22:56 | 29.84166 | -81.39382 | 3490 ft | 107 kts | 167° |
| 2026-04-24 22:56 | 29.83434 | -81.39245 | 3501 ft | 111 kts | 168° |
| 2026-04-24 22:57 | 29.82674 | -81.39097 | 3494 ft | 110 kts | 167° |
| 2026-04-24 22:57 | 29.81920 | -81.38955 | 3491 ft | 109 kts | 167° |
| 2026-04-24 22:57 | 29.81181 | -81.38812 | 3496 ft | 108 kts | 169° |
| 2026-04-24 22:57 | 29.80424 | -81.38660 | 3495 ft | 112 kts | 168° |
| 2026-04-24 22:58 | 29.79662 | -81.38496 | 3494 ft | 111 kts | 167° |
| 2026-04-24 22:58 | 29.78907 | -81.38346 | 3496 ft | 109 kts | 169° |
| 2026-04-24 22:58 | 29.78158 | -81.38190 | 3493 ft | 108 kts | 167° |
| 2026-04-24 22:58 | 29.77417 | -81.38034 | 3483 ft | 107 kts | 168° |
| 2026-04-24 22:59 | 29.76691 | -81.37887 | 3483 ft | 105 kts | 167° |
| 2026-04-24 22:59 | 29.75973 | -81.37745 | 3477 ft | 105 kts | 167° |
| 2026-04-24 22:59 | 29.74512 | -81.37456 | 3475 ft | 108 kts | 167° |
| 2026-04-24 23:00 | 29.73778 | -81.37314 | 3481 ft | 107 kts | 168° |
| 2026-04-24 23:00 | 29.73046 | -81.37174 | 3479 ft | 106 kts | 167° |
| 2026-04-24 23:00 | 29.72320 | -81.37037 | 3479 ft | 106 kts | 168° |
| 2026-04-24 23:00 | 29.71597 | -81.36905 | 3476 ft | 105 kts | 167° |
| 2026-04-24 23:01 | 29.70875 | -81.36781 | 3478 ft | 105 kts | 168° |
| 2026-04-24 23:01 | 29.70150 | -81.36645 | 3481 ft | 106 kts | 167° |
| 2026-04-24 23:01 | 29.69419 | -81.36512 | 3477 ft | 106 kts | 167° |
| 2026-04-24 23:01 | 29.68693 | -81.36373 | 3480 ft | 106 kts | 168° |
| 2026-04-24 23:02 | 29.67965 | -81.36234 | 3476 ft | 106 kts | 166° |
| 2026-04-24 23:02 | 29.67234 | -81.36102 | 3476 ft | 106 kts | 168° |
| 2026-04-24 23:02 | 29.66516 | -81.35970 | 3481 ft | 105 kts | 167° |
| 2026-04-24 23:02 | 29.65790 | -81.35839 | 3475 ft | 106 kts | 168° |
| 2026-04-24 23:03 | 29.65060 | -81.35707 | 3477 ft | 106 kts | 167° |
| 2026-04-24 23:03 | 29.64335 | -81.35562 | 3473 ft | 106 kts | 167° |
| 2026-04-24 23:03 | 29.63605 | -81.35421 | 3479 ft | 107 kts | 167° |
| 2026-04-24 23:03 | 29.62871 | -81.35277 | 3472 ft | 106 kts | 168° |
| 2026-04-24 23:04 | 29.62147 | -81.35141 | 3473 ft | 105 kts | 168° |
| 2026-04-24 23:04 | 29.61427 | -81.35002 | 3473 ft | 104 kts | 168° |
| 2026-04-24 23:04 | 29.60709 | -81.34863 | 3475 ft | 105 kts | 167° |
| 2026-04-24 23:04 | 29.59989 | -81.34734 | 3475 ft | 105 kts | 167° |
| 2026-04-24 23:05 | 29.59270 | -81.34594 | 3473 ft | 105 kts | 167° |
| 2026-04-24 23:05 | 29.58558 | -81.34456 | 3474 ft | 103 kts | 167° |
| 2026-04-24 23:05 | 29.57851 | -81.34329 | 3481 ft | 103 kts | 168° |
| 2026-04-24 23:05 | 29.57136 | -81.34193 | 3487 ft | 105 kts | 167° |
| 2026-04-24 23:06 | 29.56429 | -81.34067 | 3489 ft | 104 kts | 167° |
| 2026-04-24 23:06 | 29.55712 | -81.33938 | 3483 ft | 105 kts | 167° |
| 2026-04-24 23:06 | 29.54986 | -81.33815 | 3489 ft | 106 kts | 168° |
| 2026-04-24 23:06 | 29.54259 | -81.33678 | 3491 ft | 106 kts | 167° |
| 2026-04-24 23:07 | 29.53529 | -81.33546 | 3493 ft | 106 kts | 168° |
| 2026-04-24 23:07 | 29.52798 | -81.33405 | 3488 ft | 108 kts | 167° |
| 2026-04-24 23:07 | 29.52067 | -81.33267 | 3495 ft | 106 kts | 167° |
| 2026-04-24 23:07 | 29.51335 | -81.33135 | 3492 ft | 106 kts | 168° |
| 2026-04-24 23:08 | 29.50610 | -81.33007 | 3495 ft | 106 kts | 167° |
| 2026-04-24 23:08 | 29.49878 | -81.32876 | 3491 ft | 107 kts | 168° |
| 2026-04-24 23:08 | 29.49141 | -81.32744 | 3498 ft | 107 kts | 168° |
| 2026-04-24 23:08 | 29.48404 | -81.32603 | 3490 ft | 107 kts | 167° |
| 2026-04-24 23:09 | 29.47682 | -81.32471 | 3491 ft | 107 kts | 168° |
| 2026-04-24 23:09 | 29.46952 | -81.32333 | 3494 ft | 106 kts | 167° |
| 2026-04-24 23:09 | 29.46228 | -81.32198 | 3524 ft | 102 kts | 166° |
| 2026-04-24 23:09 | 29.45599 | -81.32084 | 3797 ft | 83 kts | 166° |
| 2026-04-24 23:10 | 29.45061 | -81.31997 | 4007 ft | 77 kts | 168° |
| 2026-04-24 23:10 | 29.44537 | -81.31908 | 4175 ft | 77 kts | 166° |
| 2026-04-24 23:10 | 29.44004 | -81.31793 | 4322 ft | 78 kts | 164° |
| 2026-04-24 23:10 | 29.43494 | -81.31647 | 4549 ft | 70 kts | 163° |
| 2026-04-24 23:11 | 29.43003 | -81.31537 | 4650 ft | 77 kts | 168° |
| 2026-04-24 23:11 | 29.42478 | -81.31437 | 4808 ft | 75 kts | 166° |
| 2026-04-24 23:11 | 29.41969 | -81.31311 | 4942 ft | 76 kts | 165° |
| 2026-04-24 23:11 | 29.41442 | -81.31190 | 5042 ft | 81 kts | 166° |
| 2026-04-24 23:12 | 29.40914 | -81.31042 | 5223 ft | 75 kts | 166° |
| 2026-04-24 23:12 | 29.40389 | -81.30888 | 5323 ft | 79 kts | 169° |
| 2026-04-24 23:12 | 29.39852 | -81.30810 | 5464 ft | 79 kts | 171° |
| 2026-04-24 23:12 | 29.39340 | -81.30614 | 5594 ft | 80 kts | 157° |
| 2026-04-24 23:13 | 29.38809 | -81.30382 | 5733 ft | 81 kts | 161° |
| 2026-04-24 23:13 | 29.38301 | -81.30122 | 5885 ft | 79 kts | 150° |
| 2026-04-24 23:13 | 29.37769 | -81.29881 | 5994 ft | 85 kts | 160° |
| 2026-04-24 23:13 | 29.37217 | -81.29633 | 6180 ft | 82 kts | 155° |
| 2026-04-24 23:14 | 29.36758 | -81.29353 | 6302 ft | 83 kts | 162° |
| 2026-04-24 23:14 | 29.36213 | -81.29184 | 6437 ft | 81 kts | 174° |
| 2026-04-24 23:14 | 29.35654 | -81.29087 | 6572 ft | 82 kts | 171° |
| 2026-04-24 23:14 | 29.35080 | -81.28937 | 6706 ft | 85 kts | 167° |
| 2026-04-24 23:15 | 29.34520 | -81.28765 | 6808 ft | 88 kts | 166° |
| 2026-04-24 23:15 | 29.33910 | -81.28582 | 6902 ft | 93 kts | 167° |
| 2026-04-24 23:15 | 29.33278 | -81.28390 | 7003 ft | 95 kts | 168° |
| 2026-04-24 23:15 | 29.32634 | -81.28190 | 7099 ft | 97 kts | 166° |
| 2026-04-24 23:16 | 29.31986 | -81.27987 | 7194 ft | 98 kts | 167° |
| 2026-04-24 23:16 | 29.31338 | -81.27785 | 7290 ft | 100 kts | 168° |
| 2026-04-24 23:16 | 29.30643 | -81.27568 | 7396 ft | 102 kts | 167° |
| 2026-04-24 23:16 | 29.30186 | -81.27425 | 7465 ft | 103 kts | 167° |
| 2026-04-24 23:17 | 29.29470 | -81.27199 | 7480 ft | 111 kts | 167° |
| 2026-04-24 23:17 | 29.28723 | -81.26963 | 7485 ft | 112 kts | 167° |
| 2026-04-24 23:17 | 29.27979 | -81.26729 | 7485 ft | 109 kts | 167° |
| 2026-04-24 23:17 | 29.27250 | -81.26496 | 7486 ft | 108 kts | 168° |
| 2026-04-24 23:18 | 29.26526 | -81.26264 | 7487 ft | 108 kts | 167° |
| 2026-04-24 23:18 | 29.25801 | -81.26034 | 7486 ft | 108 kts | 167° |
| 2026-04-24 23:18 | 29.25077 | -81.25803 | 7487 ft | 109 kts | 168° |
| 2026-04-24 23:18 | 29.24340 | -81.25566 | 7486 ft | 111 kts | 167° |
| 2026-04-24 23:19 | 29.23598 | -81.25327 | 7487 ft | 113 kts | 168° |
| 2026-04-24 23:19 | 29.22848 | -81.25033 | 7488 ft | 114 kts | 163° |
| 2026-04-24 23:19 | 29.22097 | -81.24729 | 7490 ft | 114 kts | 163° |
| 2026-04-24 23:19 | 29.21347 | -81.24423 | 7486 ft | 115 kts | 163° |
| 2026-04-24 23:20 | 29.20597 | -81.24112 | 7494 ft | 115 kts | 161° |
| 2026-04-24 23:20 | 29.19859 | -81.23762 | 7496 ft | 115 kts | 160° |
| 2026-04-24 23:20 | 29.19184 | -81.23292 | 7494 ft | 117 kts | 129° |
| 2026-04-24 23:20 | 29.18702 | -81.22544 | 7494 ft | 117 kts | 130° |
| 2026-04-24 23:21 | 29.18222 | -81.21786 | 7496 ft | 118 kts | 128° |
| 2026-04-24 23:21 | 29.17724 | -81.21048 | 7489 ft | 116 kts | 141° |
| 2026-04-24 23:21 | 29.17074 | -81.20508 | 7491 ft | 115 kts | 148° |
| 2026-04-24 23:21 | 29.16420 | -81.19970 | 7493 ft | 116 kts | 147° |
| 2026-04-24 23:22 | 29.15765 | -81.19430 | 7495 ft | 116 kts | 147° |
| 2026-04-24 23:22 | 29.15110 | -81.18892 | 7497 ft | 117 kts | 147° |
| 2026-04-24 23:22 | 29.14457 | -81.18357 | 7494 ft | 117 kts | 147° |
| 2026-04-24 23:22 | 29.13792 | -81.17812 | 7498 ft | 117 kts | 147° |
| 2026-04-24 23:23 | 29.13123 | -81.17266 | 7495 ft | 118 kts | 148° |
| 2026-04-24 23:23 | 29.12414 | -81.16801 | 7496 ft | 117 kts | 161° |
| 2026-04-24 23:23 | 29.11658 | -81.16455 | 7493 ft | 117 kts | 161° |
| 2026-04-24 23:23 | 29.10904 | -81.16107 | 7496 ft | 117 kts | 160° |
| 2026-04-24 23:24 | 29.10162 | -81.15762 | 7493 ft | 117 kts | 161° |
| 2026-04-24 23:24 | 29.09414 | -81.15411 | 7495 ft | 116 kts | 162° |
| 2026-04-24 23:24 | 29.08668 | -81.15061 | 7492 ft | 116 kts | 161° |
| 2026-04-24 23:24 | 29.07926 | -81.14711 | 7495 ft | 115 kts | 161° |
| 2026-04-24 23:25 | 29.07184 | -81.14364 | 7496 ft | 115 kts | 162° |
| 2026-04-24 23:25 | 29.06443 | -81.14003 | 7496 ft | 116 kts | 154° |
| 2026-04-24 23:25 | 29.05795 | -81.13435 | 7492 ft | 118 kts | 146° |
| 2026-04-24 23:25 | 29.05121 | -81.12892 | 7497 ft | 119 kts | 148° |
| 2026-04-24 23:26 | 29.04446 | -81.12352 | 7495 ft | 119 kts | 148° |
| 2026-04-24 23:26 | 29.03766 | -81.11814 | 7497 ft | 118 kts | 148° |
| 2026-04-24 23:26 | 29.03088 | -81.11280 | 7493 ft | 118 kts | 149° |
| 2026-04-24 23:26 | 29.02416 | -81.10745 | 7495 ft | 118 kts | 149° |
| 2026-04-24 23:27 | 29.01747 | -81.10214 | 7495 ft | 119 kts | 148° |
| 2026-04-24 23:27 | 29.01067 | -81.09669 | 7497 ft | 119 kts | 149° |
| 2026-04-24 23:27 | 29.00388 | -81.09129 | 7495 ft | 119 kts | 149° |
| 2026-04-24 23:27 | 28.99710 | -81.08589 | 7496 ft | 119 kts | 148° |
| 2026-04-24 23:28 | 28.99033 | -81.08045 | 7495 ft | 119 kts | 149° |
| 2026-04-24 23:28 | 28.98429 | -81.07398 | 7495 ft | 120 kts | 136° |
| 2026-04-24 23:28 | 28.97881 | -81.06679 | 7495 ft | 121 kts | 133° |
| 2026-04-24 23:28 | 28.97335 | -81.05947 | 7496 ft | 121 kts | 134° |
| 2026-04-24 23:29 | 28.96787 | -81.05214 | 7495 ft | 121 kts | 133° |
| 2026-04-24 23:29 | 28.96235 | -81.04487 | 7495 ft | 121 kts | 133° |
| 2026-04-24 23:29 | 28.95683 | -81.03756 | 7497 ft | 122 kts | 134° |
| 2026-04-24 23:29 | 28.95131 | -81.03020 | 7497 ft | 122 kts | 134° |
| 2026-04-24 23:30 | 28.94586 | -81.02296 | 7497 ft | 122 kts | 134° |
| 2026-04-24 23:30 | 28.94024 | -81.01559 | 7495 ft | 124 kts | 133° |
| 2026-04-24 23:30 | 28.93457 | -81.00820 | 7498 ft | 123 kts | 134° |
| 2026-04-24 23:30 | 28.92894 | -81.00082 | 7495 ft | 123 kts | 134° |
| 2026-04-24 23:31 | 28.92332 | -80.99341 | 7496 ft | 123 kts | 133° |
| 2026-04-24 23:31 | 28.91771 | -80.98600 | 7492 ft | 123 kts | 134° |
| 2026-04-24 23:31 | 28.91212 | -80.97863 | 7496 ft | 123 kts | 133° |
| 2026-04-24 23:31 | 28.90653 | -80.97129 | 7492 ft | 122 kts | 133° |
| 2026-04-24 23:32 | 28.90097 | -80.96393 | 7492 ft | 122 kts | 133° |
| 2026-04-24 23:32 | 28.89537 | -80.95661 | 7492 ft | 122 kts | 136° |
| 2026-04-24 23:32 | 28.88930 | -80.94990 | 7493 ft | 121 kts | 138° |
| 2026-04-24 23:32 | 28.88225 | -80.94502 | 7491 ft | 119 kts | 165° |
| 2026-04-24 23:33 | 28.87457 | -80.94181 | 7487 ft | 118 kts | 164° |
| 2026-04-24 23:33 | 28.86689 | -80.93836 | 7488 ft | 119 kts | 161° |
| 2026-04-24 23:33 | 28.85936 | -80.93438 | 7487 ft | 119 kts | 158° |
| 2026-04-24 23:33 | 28.85196 | -80.93010 | 7489 ft | 120 kts | 156° |
| 2026-04-24 23:34 | 28.84460 | -80.92556 | 7490 ft | 120 kts | 155° |
| 2026-04-24 23:34 | 28.83727 | -80.92113 | 7488 ft | 119 kts | 155° |
| 2026-04-24 23:34 | 28.82992 | -80.91662 | 7493 ft | 120 kts | 155° |
| 2026-04-24 23:34 | 28.82252 | -80.91214 | 7491 ft | 121 kts | 156° |
| 2026-04-24 23:35 | 28.81513 | -80.90765 | 7491 ft | 120 kts | 155° |
| 2026-04-24 23:35 | 28.80775 | -80.90313 | 7491 ft | 120 kts | 155° |
| 2026-04-24 23:35 | 28.80012 | -80.89938 | 7480 ft | 119 kts | 163° |
| 2026-04-24 23:35 | 28.79238 | -80.89618 | 7480 ft | 119 kts | 165° |
| 2026-04-24 23:36 | 28.78482 | -80.89270 | 7476 ft | 118 kts | 161° |
| 2026-04-24 23:36 | 28.77722 | -80.88909 | 7475 ft | 118 kts | 162° |
| 2026-04-24 23:36 | 28.76963 | -80.88545 | 7473 ft | 118 kts | 161° |
| 2026-04-24 23:36 | 28.76201 | -80.88186 | 7475 ft | 118 kts | 161° |
| 2026-04-24 23:37 | 28.75441 | -80.87833 | 7473 ft | 117 kts | 162° |
| 2026-04-24 23:37 | 28.74683 | -80.87488 | 7475 ft | 118 kts | 161° |
| 2026-04-24 23:37 | 28.73146 | -80.86846 | 7471 ft | 117 kts | 166° |
| 2026-04-24 23:38 | 28.72375 | -80.86540 | 7471 ft | 118 kts | 165° |
| 2026-04-24 23:38 | 28.71597 | -80.86239 | 7474 ft | 118 kts | 166° |
| 2026-04-24 23:38 | 28.70816 | -80.85936 | 7474 ft | 119 kts | 165° |
| 2026-04-24 23:38 | 28.70037 | -80.85645 | 7476 ft | 119 kts | 168° |
| 2026-04-24 23:39 | 28.69242 | -80.85383 | 7477 ft | 119 kts | 169° |
| 2026-04-24 23:39 | 28.68442 | -80.85122 | 7474 ft | 119 kts | 168° |
| 2026-04-24 23:39 | 28.67641 | -80.84865 | 7471 ft | 120 kts | 168° |
| 2026-04-24 23:39 | 28.66843 | -80.84608 | 7473 ft | 119 kts | 169° |
| 2026-04-24 23:40 | 28.66047 | -80.84346 | 7473 ft | 119 kts | 168° |
| 2026-04-24 23:40 | 28.65250 | -80.84085 | 7470 ft | 119 kts | 168° |
| 2026-04-24 23:40 | 28.64455 | -80.83826 | 7473 ft | 118 kts | 169° |
| 2026-04-24 23:40 | 28.63664 | -80.83564 | 7470 ft | 119 kts | 169° |
| 2026-04-24 23:41 | 28.62874 | -80.83306 | 7506 ft | 118 kts | 168° |
| 2026-04-24 23:41 | 28.62081 | -80.83045 | 7504 ft | 118 kts | 169° |
| 2026-04-24 23:41 | 28.61296 | -80.82785 | 7502 ft | 118 kts | 168° |
| 2026-04-24 23:41 | 28.60508 | -80.82526 | 7503 ft | 118 kts | 169° |
| 2026-04-24 23:42 | 28.59714 | -80.82261 | 7503 ft | 119 kts | 168° |
| 2026-04-24 23:42 | 28.58918 | -80.82000 | 7502 ft | 119 kts | 169° |
| 2026-04-24 23:42 | 28.58121 | -80.81736 | 7506 ft | 119 kts | 168° |
| 2026-04-24 23:42 | 28.57330 | -80.81475 | 7504 ft | 120 kts | 168° |
| 2026-04-24 23:43 | 28.56528 | -80.81210 | 7505 ft | 120 kts | 168° |
| 2026-04-24 23:43 | 28.55724 | -80.80951 | 7504 ft | 120 kts | 170° |
| 2026-04-24 23:43 | 28.54917 | -80.80692 | 7505 ft | 121 kts | 168° |
| 2026-04-24 23:43 | 28.54108 | -80.80428 | 7504 ft | 121 kts | 168° |
| 2026-04-24 23:44 | 28.53295 | -80.80168 | 7507 ft | 121 kts | 168° |
| 2026-04-24 23:44 | 28.52484 | -80.79903 | 7505 ft | 121 kts | 167° |
| 2026-04-24 23:44 | 28.51674 | -80.79638 | 7506 ft | 121 kts | 169° |
| 2026-04-24 23:44 | 28.50869 | -80.79375 | 7506 ft | 121 kts | 168° |
| 2026-04-24 23:45 | 28.50057 | -80.79115 | 7508 ft | 121 kts | 168° |
| 2026-04-24 23:45 | 28.49245 | -80.78853 | 7506 ft | 121 kts | 169° |
| 2026-04-24 23:45 | 28.48433 | -80.78588 | 7508 ft | 121 kts | 168° |
| 2026-04-24 23:45 | 28.47629 | -80.78327 | 7506 ft | 122 kts | 169° |
| 2026-04-24 23:46 | 28.46814 | -80.78057 | 7507 ft | 122 kts | 168° |
| 2026-04-24 23:46 | 28.46000 | -80.77794 | 7505 ft | 121 kts | 169° |
| 2026-04-24 23:46 | 28.45191 | -80.77531 | 7502 ft | 121 kts | 168° |
| 2026-04-24 23:46 | 28.44381 | -80.77262 | 7502 ft | 121 kts | 168° |
| 2026-04-24 23:47 | 28.43573 | -80.76998 | 7503 ft | 120 kts | 168° |
| 2026-04-24 23:47 | 28.42765 | -80.76728 | 7503 ft | 122 kts | 169° |
| 2026-04-24 23:47 | 28.41954 | -80.76456 | 7499 ft | 121 kts | 168° |
| 2026-04-24 23:47 | 28.41149 | -80.76184 | 7499 ft | 121 kts | 168° |
| 2026-04-24 23:48 | 28.40342 | -80.75919 | 7501 ft | 121 kts | 169° |
| 2026-04-24 23:48 | 28.39535 | -80.75646 | 7505 ft | 121 kts | 168° |
| 2026-04-24 23:48 | 28.38730 | -80.75372 | 7498 ft | 121 kts | 169° |
| 2026-04-24 23:48 | 28.37921 | -80.75107 | 7503 ft | 121 kts | 168° |
| 2026-04-24 23:49 | 28.37125 | -80.74840 | 7499 ft | 121 kts | 168° |
| 2026-04-24 23:49 | 28.36317 | -80.74568 | 7499 ft | 121 kts | 167° |
| 2026-04-24 23:49 | 28.35505 | -80.74298 | 7503 ft | 122 kts | 168° |
| 2026-04-24 23:49 | 28.34687 | -80.74028 | 7473 ft | 123 kts | 169° |
| 2026-04-24 23:50 | 28.33869 | -80.73759 | 7477 ft | 123 kts | 168° |
| 2026-04-24 23:50 | 28.33047 | -80.73490 | 7471 ft | 124 kts | 168° |
| 2026-04-24 23:50 | 28.32221 | -80.73245 | 7467 ft | 121 kts | 177° |
| 2026-04-24 23:50 | 28.31383 | -80.73147 | 7468 ft | 121 kts | 180° |
| 2026-04-24 23:51 | 28.30541 | -80.73050 | 7469 ft | 122 kts | 180° |
| 2026-04-24 23:51 | 28.29691 | -80.72955 | 7401 ft | 127 kts | 179° |
| 2026-04-24 23:51 | 28.28788 | -80.72854 | 7262 ft | 134 kts | 179° |
| 2026-04-24 23:51 | 28.27853 | -80.72751 | 7126 ft | 136 kts | 180° |
| 2026-04-24 23:52 | 28.26917 | -80.72644 | 6986 ft | 138 kts | 179° |
| 2026-04-24 23:52 | 28.25961 | -80.72533 | 6847 ft | 138 kts | 178° |
| 2026-04-24 23:52 | 28.24999 | -80.72416 | 6709 ft | 139 kts | 178° |
| 2026-04-24 23:52 | 28.24051 | -80.72178 | 6565 ft | 139 kts | 174° |
| 2026-04-24 23:53 | 28.23099 | -80.72154 | 6424 ft | 136 kts | 186° |
| 2026-04-24 23:53 | 28.22149 | -80.72188 | 6279 ft | 137 kts | 184° |
| 2026-04-24 23:53 | 28.21211 | -80.71947 | 6125 ft | 140 kts | 166° |
| 2026-04-24 23:53 | 28.20284 | -80.71616 | 5982 ft | 140 kts | 167° |
| 2026-04-24 23:54 | 28.19355 | -80.71303 | 5826 ft | 139 kts | 167° |
| 2026-04-24 23:54 | 28.18428 | -80.70992 | 5706 ft | 139 kts | 167° |
| 2026-04-24 23:54 | 28.17500 | -80.70725 | 5553 ft | 136 kts | 178° |
| 2026-04-24 23:54 | 28.16579 | -80.70659 | 5488 ft | 130 kts | 180° |
| 2026-04-24 23:55 | 28.15688 | -80.70593 | 5433 ft | 129 kts | 179° |
| 2026-04-24 23:55 | 28.14788 | -80.70523 | 5361 ft | 129 kts | 180° |
| 2026-04-24 23:55 | 28.13883 | -80.70451 | 5238 ft | 132 kts | 180° |
| 2026-04-24 23:55 | 28.12965 | -80.70377 | 5120 ft | 133 kts | 180° |
| 2026-04-24 23:56 | 28.12041 | -80.70298 | 4994 ft | 133 kts | 179° |
| 2026-04-24 23:56 | 28.11118 | -80.70216 | 4878 ft | 134 kts | 178° |
| 2026-04-24 23:56 | 28.10189 | -80.70131 | 4759 ft | 134 kts | 178° |
| 2026-04-24 23:56 | 28.09262 | -80.70042 | 4637 ft | 134 kts | 178° |
| 2026-04-24 23:57 | 28.08344 | -80.69950 | 4512 ft | 134 kts | 176° |
| 2026-04-24 23:57 | 28.07434 | -80.69855 | 4495 ft | 128 kts | 177° |
| 2026-04-24 23:57 | 28.06562 | -80.69757 | 4491 ft | 124 kts | 177° |
| 2026-04-24 23:57 | 28.05714 | -80.69654 | 4487 ft | 121 kts | 176° |
| 2026-04-24 23:58 | 28.04880 | -80.69545 | 4485 ft | 120 kts | 176° |
| 2026-04-24 23:58 | 28.04068 | -80.69441 | 4607 ft | 111 kts | 178° |
| 2026-04-24 23:58 | 28.03299 | -80.69356 | 4707 ft | 110 kts | 176° |
| 2026-04-24 23:58 | 28.02561 | -80.69235 | 4887 ft | 104 kts | 176° |
| 2026-04-24 23:59 | 28.01874 | -80.69098 | 5066 ft | 98 kts | 173° |
| 2026-04-24 23:59 | 28.01220 | -80.68948 | 5245 ft | 94 kts | 174° |
| 2026-04-24 23:59 | 28.00606 | -80.68784 | 5429 ft | 89 kts | 171° |
| 2026-04-24 23:59 | 28.00015 | -80.68603 | 5607 ft | 86 kts | 168° |
| 2026-04-25 00:00 | 27.99454 | -80.68405 | 5777 ft | 84 kts | 167° |
| 2026-04-25 00:00 | 27.98886 | -80.68178 | 5879 ft | 89 kts | 165° |
| 2026-04-25 00:00 | 27.98291 | -80.67924 | 5986 ft | 95 kts | 165° |
| 2026-04-25 00:00 | 27.97657 | -80.67644 | 6096 ft | 100 kts | 162° |
| 2026-04-25 00:01 | 27.97013 | -80.67338 | 6220 ft | 100 kts | 160° |
| 2026-04-25 00:01 | 27.96385 | -80.67017 | 6349 ft | 99 kts | 159° |
| 2026-04-25 00:01 | 27.95762 | -80.66676 | 6468 ft | 100 kts | 159° |
| 2026-04-25 00:01 | 27.95147 | -80.66319 | 6584 ft | 101 kts | 156° |
| 2026-04-25 00:02 | 27.94527 | -80.65947 | 6701 ft | 99 kts | 163° |
| 2026-04-25 00:02 | 27.93865 | -80.65810 | 6823 ft | 97 kts | 173° |
| 2026-04-25 00:02 | 27.93202 | -80.65667 | 6936 ft | 97 kts | 176° |
| 2026-04-25 00:02 | 27.92534 | -80.65525 | 7059 ft | 98 kts | 175° |
| 2026-04-25 00:03 | 27.91862 | -80.65379 | 7178 ft | 98 kts | 175° |
| 2026-04-25 00:03 | 27.91190 | -80.65239 | 7301 ft | 98 kts | 176° |
| 2026-04-25 00:03 | 27.90515 | -80.65096 | 7422 ft | 99 kts | 176° |
| 2026-04-25 00:03 | 27.89840 | -80.64953 | 7541 ft | 98 kts | 175° |
| 2026-04-25 00:04 | 27.89124 | -80.64810 | 7492 ft | 116 kts | 176° |
| 2026-04-25 00:04 | 27.88276 | -80.64655 | 7341 ft | 132 kts | 175° |
| 2026-04-25 00:04 | 27.87335 | -80.64482 | 7166 ft | 141 kts | 177° |
| 2026-04-25 00:04 | 27.86348 | -80.64334 | 6989 ft | 145 kts | 176° |
| 2026-04-25 00:05 | 27.85344 | -80.64185 | 6811 ft | 146 kts | 177° |
| 2026-04-25 00:05 | 27.84360 | -80.64037 | 6622 ft | 140 kts | 176° |
| 2026-04-25 00:05 | 27.83410 | -80.63892 | 6446 ft | 136 kts | 177° |
| 2026-04-25 00:05 | 27.82480 | -80.63749 | 6247 ft | 134 kts | 176° |
| 2026-04-25 00:06 | 27.81563 | -80.63606 | 6044 ft | 132 kts | 177° |
| 2026-04-25 00:06 | 27.80658 | -80.63466 | 5846 ft | 131 kts | 177° |
| 2026-04-25 00:06 | 27.79757 | -80.63327 | 5645 ft | 131 kts | 177° |
| 2026-04-25 00:06 | 27.78858 | -80.63194 | 5453 ft | 130 kts | 177° |
| 2026-04-25 00:07 | 27.78265 | -80.63109 | 5319 ft | 130 kts | 178° |
| 2026-04-25 00:07 | 27.77369 | -80.62980 | 5126 ft | 129 kts | 176° |
| 2026-04-25 00:07 | 27.76478 | -80.62859 | 4930 ft | 129 kts | 177° |
| 2026-04-25 00:07 | 27.75591 | -80.62737 | 4735 ft | 128 kts | 176° |
| 2026-04-25 00:08 | 27.74705 | -80.62620 | 4541 ft | 127 kts | 176° |
| 2026-04-25 00:08 | 27.73859 | -80.62516 | 4506 ft | 116 kts | 177° |
| 2026-04-25 00:08 | 27.73083 | -80.62418 | 4495 ft | 109 kts | 176° |
| 2026-04-25 00:08 | 27.72342 | -80.62321 | 4496 ft | 104 kts | 176° |
| 2026-04-25 00:09 | 27.71634 | -80.62232 | 4488 ft | 100 kts | 177° |
| 2026-04-25 00:09 | 27.70950 | -80.62141 | 4489 ft | 98 kts | 177° |
| 2026-04-25 00:09 | 27.70282 | -80.62053 | 4489 ft | 96 kts | 176° |
| 2026-04-25 00:09 | 27.69599 | -80.61964 | 4498 ft | 102 kts | 176° |
| 2026-04-25 00:10 | 27.68871 | -80.61868 | 4510 ft | 108 kts | 176° |
| 2026-04-25 00:10 | 27.68105 | -80.61770 | 4513 ft | 113 kts | 176° |
| 2026-04-25 00:10 | 27.67311 | -80.61671 | 4508 ft | 116 kts | 176° |
| 2026-04-25 00:10 | 27.66506 | -80.61577 | 4506 ft | 117 kts | 176° |
| 2026-04-25 00:11 | 27.65694 | -80.61479 | 4509 ft | 118 kts | 176° |
| 2026-04-25 00:11 | 27.64879 | -80.61380 | 4509 ft | 118 kts | 176° |
| 2026-04-25 00:11 | 27.64062 | -80.61283 | 4508 ft | 118 kts | 176° |
| 2026-04-25 00:11 | 27.63259 | -80.61188 | 4511 ft | 118 kts | 176° |
| 2026-04-25 00:12 | 27.62446 | -80.61089 | 4511 ft | 117 kts | 176° |
| 2026-04-25 00:12 | 27.61630 | -80.60997 | 4504 ft | 117 kts | 177° |
| 2026-04-25 00:12 | 27.60817 | -80.60903 | 4512 ft | 118 kts | 176° |
| 2026-04-25 00:12 | 27.59999 | -80.60810 | 4509 ft | 118 kts | 176° |
| 2026-04-25 00:13 | 27.59174 | -80.60717 | 4506 ft | 119 kts | 177° |
| 2026-04-25 00:13 | 27.58346 | -80.60625 | 4506 ft | 119 kts | 176° |
| 2026-04-25 00:13 | 27.57519 | -80.60533 | 4506 ft | 119 kts | 176° |
| 2026-04-25 00:13 | 27.56694 | -80.60442 | 4503 ft | 119 kts | 176° |
| 2026-04-25 00:14 | 27.55873 | -80.60349 | 4509 ft | 118 kts | 177° |
| 2026-04-25 00:14 | 27.55055 | -80.60258 | 4502 ft | 118 kts | 177° |
| 2026-04-25 00:14 | 27.54238 | -80.60166 | 4505 ft | 118 kts | 176° |
| 2026-04-25 00:14 | 27.53419 | -80.60080 | 4506 ft | 118 kts | 177° |
| 2026-04-25 00:15 | 27.52609 | -80.59995 | 4500 ft | 119 kts | 176° |
| 2026-04-25 00:15 | 27.51784 | -80.59910 | 4498 ft | 119 kts | 176° |
| 2026-04-25 00:15 | 27.50961 | -80.59827 | 4497 ft | 119 kts | 176° |
| 2026-04-25 00:15 | 27.50138 | -80.59742 | 4498 ft | 119 kts | 177° |
| 2026-04-25 00:16 | 27.49317 | -80.59654 | 4500 ft | 118 kts | 177° |
| 2026-04-25 00:16 | 27.48497 | -80.59567 | 4494 ft | 118 kts | 176° |
| 2026-04-25 00:16 | 27.47675 | -80.59480 | 4496 ft | 119 kts | 176° |
| 2026-04-25 00:16 | 27.46850 | -80.59394 | 4500 ft | 119 kts | 176° |
| 2026-04-25 00:17 | 27.46022 | -80.59308 | 4494 ft | 119 kts | 177° |
| 2026-04-25 00:17 | 27.45194 | -80.59224 | 4498 ft | 119 kts | 176° |
| 2026-04-25 00:17 | 27.44367 | -80.59139 | 4504 ft | 119 kts | 177° |
| 2026-04-25 00:17 | 27.43542 | -80.59055 | 4499 ft | 119 kts | 176° |
| 2026-04-25 00:18 | 27.42719 | -80.58971 | 4495 ft | 119 kts | 176° |
| 2026-04-25 00:18 | 27.41907 | -80.58885 | 4493 ft | 119 kts | 176° |
| 2026-04-25 00:18 | 27.41086 | -80.58797 | 4495 ft | 119 kts | 176° |
| 2026-04-25 00:18 | 27.40264 | -80.58714 | 4495 ft | 119 kts | 176° |
| 2026-04-25 00:19 | 27.39437 | -80.58633 | 4494 ft | 119 kts | 177° |
| 2026-04-25 00:19 | 27.38610 | -80.58553 | 4494 ft | 119 kts | 176° |
| 2026-04-25 00:19 | 27.37784 | -80.58472 | 4499 ft | 119 kts | 177° |
| 2026-04-25 00:19 | 27.36957 | -80.58389 | 4496 ft | 119 kts | 176° |
| 2026-04-25 00:20 | 27.36133 | -80.58308 | 4492 ft | 119 kts | 176° |
| 2026-04-25 00:20 | 27.35309 | -80.58227 | 4492 ft | 119 kts | 176° |
| 2026-04-25 00:20 | 27.34486 | -80.58146 | 4493 ft | 119 kts | 176° |
| 2026-04-25 00:20 | 27.33664 | -80.58066 | 4495 ft | 118 kts | 176° |
| 2026-04-25 00:21 | 27.32839 | -80.57988 | 4484 ft | 119 kts | 176° |
| 2026-04-25 00:21 | 27.32013 | -80.57911 | 4487 ft | 119 kts | 176° |
| 2026-04-25 00:21 | 27.31198 | -80.57836 | 4483 ft | 119 kts | 176° |
| 2026-04-25 00:21 | 27.30372 | -80.57761 | 4487 ft | 119 kts | 177° |
| 2026-04-25 00:22 | 27.29544 | -80.57686 | 4486 ft | 119 kts | 176° |
| 2026-04-25 00:22 | 27.28718 | -80.57611 | 4489 ft | 119 kts | 176° |
| 2026-04-25 00:22 | 27.27891 | -80.57538 | 4487 ft | 119 kts | 176° |
| 2026-04-25 00:22 | 27.27065 | -80.57467 | 4491 ft | 119 kts | 176° |
| 2026-04-25 00:23 | 27.26237 | -80.57395 | 4490 ft | 119 kts | 176° |
| 2026-04-25 00:23 | 27.25410 | -80.57323 | 4486 ft | 119 kts | 176° |
| 2026-04-25 00:23 | 27.24584 | -80.57251 | 4488 ft | 119 kts | 176° |
| 2026-04-25 00:23 | 27.23759 | -80.57180 | 4483 ft | 119 kts | 176° |
| 2026-04-25 00:24 | 27.22936 | -80.57109 | 4486 ft | 119 kts | 176° |
| 2026-04-25 00:24 | 27.22100 | -80.57038 | 4417 ft | 124 kts | 176° |
| 2026-04-25 00:24 | 27.21232 | -80.56876 | 4296 ft | 128 kts | 169° |
| 2026-04-25 00:24 | 27.20356 | -80.56632 | 4179 ft | 130 kts | 165° |
| 2026-04-25 00:25 | 27.19484 | -80.56377 | 4061 ft | 131 kts | 166° |
| 2026-04-25 00:25 | 27.18595 | -80.56126 | 3931 ft | 132 kts | 166° |
| 2026-04-25 00:25 | 27.17706 | -80.55880 | 3818 ft | 132 kts | 166° |
| 2026-04-25 00:25 | 27.16815 | -80.55641 | 3698 ft | 131 kts | 166° |
| 2026-04-25 00:26 | 27.15924 | -80.55409 | 3572 ft | 131 kts | 165° |
| 2026-04-25 00:26 | 27.15044 | -80.55183 | 3487 ft | 128 kts | 165° |
| 2026-04-25 00:26 | 27.14196 | -80.54969 | 3485 ft | 122 kts | 166° |
| 2026-04-25 00:26 | 27.13376 | -80.54763 | 3482 ft | 119 kts | 165° |
| 2026-04-25 00:27 | 27.12576 | -80.54565 | 3477 ft | 117 kts | 166° |
| 2026-04-25 00:27 | 27.11786 | -80.54373 | 3475 ft | 116 kts | 166° |
| 2026-04-25 00:27 | 27.11009 | -80.54183 | 3471 ft | 115 kts | 165° |
| 2026-04-25 00:27 | 27.10228 | -80.53995 | 3478 ft | 115 kts | 166° |
| 2026-04-25 00:28 | 27.09450 | -80.53810 | 3479 ft | 114 kts | 166° |
| 2026-04-25 00:28 | 27.08674 | -80.53625 | 3480 ft | 114 kts | 166° |
| 2026-04-25 00:28 | 27.07891 | -80.53441 | 3473 ft | 114 kts | 166° |
| 2026-04-25 00:28 | 27.07114 | -80.53259 | 3475 ft | 114 kts | 165° |
| 2026-04-25 00:29 | 27.06337 | -80.53073 | 3476 ft | 115 kts | 165° |
| 2026-04-25 00:29 | 27.05557 | -80.52883 | 3475 ft | 115 kts | 166° |
| 2026-04-25 00:29 | 27.04774 | -80.52696 | 3480 ft | 115 kts | 166° |
| 2026-04-25 00:29 | 27.03990 | -80.52506 | 3478 ft | 115 kts | 165° |
| 2026-04-25 00:30 | 27.03203 | -80.52311 | 3477 ft | 116 kts | 166° |
| 2026-04-25 00:30 | 27.02415 | -80.52118 | 3475 ft | 115 kts | 165° |
| 2026-04-25 00:30 | 27.01630 | -80.51928 | 3471 ft | 115 kts | 166° |
| 2026-04-25 00:30 | 27.00847 | -80.51735 | 3478 ft | 115 kts | 165° |
| 2026-04-25 00:31 | 27.00066 | -80.51544 | 3475 ft | 115 kts | 165° |
| 2026-04-25 00:31 | 26.99287 | -80.51356 | 3473 ft | 114 kts | 166° |
| 2026-04-25 00:31 | 26.98518 | -80.51168 | 3475 ft | 115 kts | 165° |
| 2026-04-25 00:31 | 26.97733 | -80.50972 | 3479 ft | 115 kts | 165° |
| 2026-04-25 00:32 | 26.96948 | -80.50774 | 3479 ft | 116 kts | 166° |
| 2026-04-25 00:32 | 26.96161 | -80.50577 | 3482 ft | 116 kts | 165° |
| 2026-04-25 00:32 | 26.95374 | -80.50384 | 3479 ft | 115 kts | 166° |
| 2026-04-25 00:32 | 26.94589 | -80.50194 | 3475 ft | 115 kts | 165° |
| 2026-04-25 00:33 | 26.93805 | -80.50005 | 3474 ft | 114 kts | 166° |
| 2026-04-25 00:33 | 26.93026 | -80.49816 | 3475 ft | 115 kts | 166° |
| 2026-04-25 00:33 | 26.92243 | -80.49622 | 3474 ft | 116 kts | 166° |
| 2026-04-25 00:33 | 26.91456 | -80.49425 | 3476 ft | 116 kts | 165° |
| 2026-04-25 00:34 | 26.90668 | -80.49228 | 3477 ft | 116 kts | 166° |
| 2026-04-25 00:34 | 26.89878 | -80.49030 | 3476 ft | 116 kts | 166° |
| 2026-04-25 00:34 | 26.89093 | -80.48833 | 3476 ft | 115 kts | 165° |
| 2026-04-25 00:34 | 26.88319 | -80.48642 | 3478 ft | 115 kts | 166° |
| 2026-04-25 00:35 | 26.87539 | -80.48453 | 3472 ft | 115 kts | 166° |
| 2026-04-25 00:35 | 26.86758 | -80.48261 | 3477 ft | 115 kts | 166° |
| 2026-04-25 00:35 | 26.85980 | -80.48066 | 3473 ft | 115 kts | 166° |
| 2026-04-25 00:35 | 26.85197 | -80.47871 | 3475 ft | 116 kts | 166° |
| 2026-04-25 00:36 | 26.84411 | -80.47674 | 3477 ft | 116 kts | 166° |
| 2026-04-25 00:36 | 26.83623 | -80.47474 | 3477 ft | 116 kts | 166° |
| 2026-04-25 00:36 | 26.82835 | -80.47275 | 3475 ft | 116 kts | 166° |
| 2026-04-25 00:36 | 26.82048 | -80.47078 | 3477 ft | 116 kts | 165° |
| 2026-04-25 00:37 | 26.81258 | -80.46880 | 3478 ft | 116 kts | 166° |
| 2026-04-25 00:37 | 26.80473 | -80.46682 | 3478 ft | 115 kts | 165° |
| 2026-04-25 00:37 | 26.79691 | -80.46488 | 3475 ft | 115 kts | 166° |
| 2026-04-25 00:37 | 26.78908 | -80.46291 | 3471 ft | 115 kts | 166° |
| 2026-04-25 00:38 | 26.78140 | -80.46094 | 3471 ft | 114 kts | 166° |
| 2026-04-25 00:38 | 26.77352 | -80.45890 | 3475 ft | 114 kts | 165° |
| 2026-04-25 00:38 | 26.76577 | -80.45692 | 3473 ft | 115 kts | 166° |
| 2026-04-25 00:38 | 26.75796 | -80.45495 | 3474 ft | 115 kts | 165° |
| 2026-04-25 00:39 | 26.75024 | -80.45298 | 3476 ft | 115 kts | 165° |
| 2026-04-25 00:39 | 26.74241 | -80.45100 | 3478 ft | 115 kts | 165° |
| 2026-04-25 00:39 | 26.73455 | -80.44902 | 3477 ft | 116 kts | 166° |
| 2026-04-25 00:39 | 26.72671 | -80.44705 | 3478 ft | 116 kts | 166° |
| 2026-04-25 00:40 | 26.71887 | -80.44508 | 3474 ft | 115 kts | 165° |
| 2026-04-25 00:40 | 26.71108 | -80.44314 | 3478 ft | 115 kts | 165° |
| 2026-04-25 00:40 | 26.70326 | -80.44118 | 3475 ft | 115 kts | 165° |
| 2026-04-25 00:40 | 26.69540 | -80.43919 | 3475 ft | 116 kts | 166° |
| 2026-04-25 00:41 | 26.68753 | -80.43718 | 3476 ft | 116 kts | 165° |
| 2026-04-25 00:41 | 26.67964 | -80.43516 | 3478 ft | 116 kts | 165° |
| 2026-04-25 00:41 | 26.67172 | -80.43311 | 3478 ft | 117 kts | 165° |
| 2026-04-25 00:41 | 26.66383 | -80.43106 | 3477 ft | 116 kts | 166° |
| 2026-04-25 00:42 | 26.65595 | -80.42901 | 3476 ft | 116 kts | 166° |
| 2026-04-25 00:42 | 26.64810 | -80.42698 | 3478 ft | 116 kts | 165° |
| 2026-04-25 00:42 | 26.64024 | -80.42495 | 3479 ft | 116 kts | 166° |
| 2026-04-25 00:42 | 26.63233 | -80.42293 | 3477 ft | 117 kts | 166° |
| 2026-04-25 00:43 | 26.62440 | -80.42092 | 3477 ft | 117 kts | 166° |
| 2026-04-25 00:43 | 26.61644 | -80.41889 | 3479 ft | 117 kts | 166° |
| 2026-04-25 00:43 | 26.60850 | -80.41686 | 3478 ft | 117 kts | 166° |
| 2026-04-25 00:43 | 26.60055 | -80.41479 | 3480 ft | 118 kts | 165° |
| 2026-04-25 00:44 | 26.59258 | -80.41270 | 3481 ft | 118 kts | 166° |
| 2026-04-25 00:44 | 26.58463 | -80.41064 | 3479 ft | 117 kts | 166° |
| 2026-04-25 00:44 | 26.57680 | -80.40861 | 3484 ft | 117 kts | 165° |
| 2026-04-25 00:44 | 26.56888 | -80.40656 | 3486 ft | 117 kts | 166° |
| 2026-04-25 00:45 | 26.56094 | -80.40451 | 3487 ft | 117 kts | 166° |
| 2026-04-25 00:45 | 26.55299 | -80.40246 | 3486 ft | 117 kts | 166° |
| 2026-04-25 00:45 | 26.54507 | -80.40039 | 3490 ft | 117 kts | 166° |
| 2026-04-25 00:45 | 26.53712 | -80.39830 | 3488 ft | 118 kts | 166° |
| 2026-04-25 00:46 | 26.52915 | -80.39619 | 3489 ft | 118 kts | 166° |
| 2026-04-25 00:46 | 26.52116 | -80.39408 | 3490 ft | 118 kts | 166° |
| 2026-04-25 00:46 | 26.50516 | -80.38988 | 3486 ft | 118 kts | 166° |
| 2026-04-25 00:47 | 26.49719 | -80.38778 | 3486 ft | 118 kts | 166° |
| 2026-04-25 00:47 | 26.48920 | -80.38569 | 3487 ft | 118 kts | 165° |
| 2026-04-25 00:47 | 26.48120 | -80.38361 | 3485 ft | 118 kts | 166° |
| 2026-04-25 00:47 | 26.47332 | -80.38154 | 3489 ft | 118 kts | 166° |
| 2026-04-25 00:48 | 26.46531 | -80.37944 | 3488 ft | 118 kts | 166° |
| 2026-04-25 00:48 | 26.45729 | -80.37733 | 3488 ft | 118 kts | 165° |
| 2026-04-25 00:48 | 26.44926 | -80.37523 | 3488 ft | 118 kts | 166° |
| 2026-04-25 00:48 | 26.44125 | -80.37315 | 3490 ft | 118 kts | 166° |
| 2026-04-25 00:49 | 26.43317 | -80.37145 | 3490 ft | 118 kts | 168° |
| 2026-04-25 00:49 | 26.42508 | -80.36983 | 3487 ft | 118 kts | 168° |
| 2026-04-25 00:49 | 26.41676 | -80.36814 | 3378 ft | 126 kts | 168° |
| 2026-04-25 00:49 | 26.40830 | -80.36535 | 3231 ft | 128 kts | 152° |
| 2026-04-25 00:50 | 26.40037 | -80.36054 | 3093 ft | 130 kts | 150° |
| 2026-04-25 00:50 | 26.39283 | -80.35502 | 3005 ft | 127 kts | 143° |
| 2026-04-25 00:50 | 26.38581 | -80.34943 | 3001 ft | 121 kts | 143° |
| 2026-04-25 00:50 | 26.38128 | -80.34584 | 3002 ft | 120 kts | 143° |
| 2026-04-25 00:51 | 26.37268 | -80.33836 | 2997 ft | 117 kts | 135° |
| 2026-04-25 00:51 | 26.36701 | -80.33188 | 2991 ft | 116 kts | 134° |
| 2026-04-25 00:51 | 26.36136 | -80.32545 | 2996 ft | 116 kts | 134° |
| 2026-04-25 00:51 | 26.35570 | -80.31898 | 2995 ft | 117 kts | 134° |
| 2026-04-25 00:52 | 26.35187 | -80.31458 | 2993 ft | 116 kts | 134° |
| 2026-04-25 00:52 | 26.34626 | -80.30809 | 2988 ft | 117 kts | 133° |
| 2026-04-25 00:52 | 26.34051 | -80.30142 | 2864 ft | 124 kts | 133° |
| 2026-04-25 00:52 | 26.33451 | -80.29440 | 2751 ft | 126 kts | 133° |
| 2026-04-25 00:53 | 26.32753 | -80.28897 | 2606 ft | 126 kts | 169° |
| 2026-04-25 00:53 | 26.31912 | -80.29190 | 2448 ft | 129 kts | 198° |
| 2026-04-25 00:53 | 26.31030 | -80.29423 | 2274 ft | 132 kts | 189° |
| 2026-04-25 00:53 | 26.30142 | -80.29637 | 2200 ft | 126 kts | 189° |
| 2026-04-25 00:54 | 26.29291 | -80.29845 | 2138 ft | 126 kts | 189° |
| 2026-04-25 00:54 | 26.28428 | -80.30051 | 2039 ft | 127 kts | 189° |
| 2026-04-25 00:54 | 26.27652 | -80.30492 | 1930 ft | 133 kts | 231° |
| 2026-04-25 00:54 | 26.27490 | -80.31506 | 1820 ft | 136 kts | 271° |
| 2026-04-25 00:55 | 26.27508 | -80.32563 | 1730 ft | 138 kts | 270° |
| 2026-04-25 00:55 | 26.27537 | -80.33985 | 1598 ft | 138 kts | 270° |
| 2026-04-25 00:55 | 26.27552 | -80.34695 | 1527 ft | 139 kts | 270° |
| 2026-04-25 00:55 | 26.27563 | -80.35753 | 1499 ft | 133 kts | 269° |
| 2026-04-25 00:56 | 26.27585 | -80.36774 | 1499 ft | 130 kts | 270° |
| 2026-04-25 00:56 | 26.27602 | -80.37766 | 1583 ft | 122 kts | 269° |
| 2026-04-25 00:56 | 26.27612 | -80.38658 | 1812 ft | 110 kts | 267° |
| 2026-04-25 00:56 | 26.27611 | -80.39478 | 2050 ft | 103 kts | 267° |
| 2026-04-25 00:57 | 26.27596 | -80.40257 | 2264 ft | 100 kts | 265° |
| 2026-04-25 00:57 | 26.27564 | -80.41029 | 2458 ft | 99 kts | 263° |
| 2026-04-25 00:57 | 26.27518 | -80.41780 | 2650 ft | 96 kts | 263° |
| 2026-04-25 00:57 | 26.27456 | -80.42509 | 2838 ft | 93 kts | 261° |
| 2026-04-25 00:58 | 26.27360 | -80.43209 | 2987 ft | 95 kts | 245° |
| 2026-04-25 00:58 | 26.26778 | -80.43493 | 2997 ft | 105 kts | 162° |
| 2026-04-25 00:58 | 26.26045 | -80.43307 | 2982 ft | 115 kts | 168° |
| 2026-04-25 00:58 | 26.25208 | -80.43137 | 2853 ft | 125 kts | 168° |
| 2026-04-25 00:59 | 26.24358 | -80.42962 | 2717 ft | 124 kts | 168° |
| 2026-04-25 00:59 | 26.23512 | -80.42786 | 2580 ft | 123 kts | 167° |
| 2026-04-25 00:59 | 26.22670 | -80.42609 | 2436 ft | 123 kts | 167° |
| 2026-04-25 00:59 | 26.21826 | -80.42429 | 2262 ft | 125 kts | 167° |
| 2026-04-25 01:00 | 26.20964 | -80.42244 | 2042 ft | 127 kts | 167° |
| 2026-04-25 01:00 | 26.20117 | -80.41979 | 1820 ft | 126 kts | 156° |
| 2026-04-25 01:00 | 26.19301 | -80.41601 | 1601 ft | 128 kts | 155° |
| 2026-04-25 01:00 | 26.18486 | -80.41231 | 1500 ft | 121 kts | 155° |
| 2026-04-25 01:01 | 26.17733 | -80.40891 | 1495 ft | 114 kts | 155° |
| 2026-04-25 01:01 | 26.17013 | -80.40575 | 1489 ft | 109 kts | 156° |
| 2026-04-25 01:01 | 26.16345 | -80.40212 | 1488 ft | 105 kts | 150° |
| 2026-04-25 01:01 | 26.15707 | -80.39850 | 1487 ft | 101 kts | 150° |
| 2026-04-25 01:02 | 26.15080 | -80.39498 | 1495 ft | 102 kts | 150° |
| 2026-04-25 01:02 | 26.14447 | -80.39139 | 1492 ft | 102 kts | 151° |
| 2026-04-25 01:02 | 26.13821 | -80.38780 | 1495 ft | 101 kts | 151° |
| 2026-04-25 01:02 | 26.13184 | -80.38448 | 1495 ft | 102 kts | 155° |
| 2026-04-25 01:03 | 26.12520 | -80.38157 | 1496 ft | 103 kts | 156° |
| 2026-04-25 01:03 | 26.11859 | -80.37855 | 1495 ft | 103 kts | 155° |
| 2026-04-25 01:03 | 26.11208 | -80.37550 | 1497 ft | 103 kts | 155° |
| 2026-04-25 01:03 | 26.10542 | -80.37251 | 1492 ft | 102 kts | 155° |
| 2026-04-25 01:04 | 26.09889 | -80.36961 | 1500 ft | 101 kts | 155° |
| 2026-04-25 01:04 | 26.09226 | -80.36674 | 1501 ft | 103 kts | 156° |
| 2026-04-25 01:04 | 26.08562 | -80.36386 | 1497 ft | 101 kts | 155° |
| 2026-04-25 01:04 | 26.07897 | -80.36185 | 1501 ft | 103 kts | 164° |
| 2026-04-25 01:05 | 26.07178 | -80.36002 | 1504 ft | 108 kts | 163° |
| 2026-04-25 01:05 | 26.06424 | -80.35801 | 1503 ft | 114 kts | 164° |
| 2026-04-25 01:05 | 26.05642 | -80.35611 | 1503 ft | 117 kts | 165° |
| 2026-04-25 01:05 | 26.04839 | -80.35427 | 1503 ft | 117 kts | 166° |
| 2026-04-25 01:06 | 26.04038 | -80.35268 | 1504 ft | 118 kts | 170° |
| 2026-04-25 01:06 | 26.03224 | -80.35169 | 1504 ft | 116 kts | 170° |
| 2026-04-25 01:06 | 26.02422 | -80.35069 | 1499 ft | 115 kts | 170° |
| 2026-04-25 01:06 | 26.01633 | -80.34972 | 1504 ft | 116 kts | 170° |
| 2026-04-25 01:07 | 26.00832 | -80.34869 | 1495 ft | 115 kts | 171° |
| 2026-04-25 01:07 | 26.00041 | -80.34768 | 1501 ft | 115 kts | 171° |
| 2026-04-25 01:07 | 25.99248 | -80.34662 | 1497 ft | 114 kts | 170° |
| 2026-04-25 01:07 | 25.98463 | -80.34563 | 1393 ft | 112 kts | 172° |
| 2026-04-25 01:08 | 25.97717 | -80.34461 | 1267 ft | 106 kts | 165° |
| 2026-04-25 01:08 | 25.97019 | -80.34296 | 1333 ft | 97 kts | 169° |
| 2026-04-25 01:08 | 25.96363 | -80.34183 | 1370 ft | 95 kts | 168° |
| 2026-04-25 01:08 | 25.95712 | -80.34133 | 1369 ft | 96 kts | 174° |
| 2026-04-25 01:09 | 25.95020 | -80.34067 | 1247 ft | 103 kts | 171° |
| 2026-04-25 01:09 | 25.94297 | -80.33978 | 1143 ft | 104 kts | 170° |
| 2026-04-25 01:09 | 25.93579 | -80.33879 | 1036 ft | 105 kts | 168° |
| 2026-04-25 01:09 | 25.92905 | -80.33758 | 916 ft | 91 kts | 167° |
| 2026-04-25 01:10 | 25.92307 | -80.33638 | 856 ft | 87 kts | 163° |
| 2026-04-25 01:10 | 25.91777 | -80.33322 | 817 ft | 86 kts | 141° |
| 2026-04-25 01:10 | 25.91272 | -80.32950 | 797 ft | 88 kts | 122° |
| 2026-04-25 01:10 | 25.91126 | -80.32300 | 698 ft | 86 kts | 91° |
| 2026-04-25 01:11 | 25.91134 | -80.31681 | 529 ft | 73 kts | 89° |
| 2026-04-25 01:11 | 25.91164 | -80.31122 | 423 ft | 76 kts | 88° |
| 2026-04-25 01:11 | 25.91189 | -80.30552 | 358 ft | 73 kts | 86° |
| 2026-04-25 01:11 | 25.91210 | -80.30023 | 241 ft | 65 kts | 89° |
| 2026-04-25 01:12 | 25.91237 | -80.29502 | 178 ft | 70 kts | 86° |
| 2026-04-25 01:12 | 25.91261 | -80.28985 | 81 ft | 65 kts | 89° |
| 2026-04-25 01:12 | 25.91279 | -80.28556 | 11 ft | 44 kts | 88° |
| 2026-04-25 01:12 | 25.91289 | -80.28287 | 9 ft | 15 kts | 91° |
| 2026-04-25 01:13 | 25.91213 | -80.28255 | 10 ft | 12 kts | 181° |
| 2026-04-25 01:13 | 25.91195 | -80.28254 | 11 ft | 0 kts | 180° |
| 2026-04-25 01:14 | 25.91193 | -80.28254 | 11 ft | 3 kts | 170° |
| 2026-04-25 01:14 | 25.91160 | -80.28222 | 11 ft | 7 kts | 109° |
| 2026-04-25 01:14 | 25.91162 | -80.28154 | 11 ft | 10 kts | 85° |
| 2026-04-25 01:14 | 25.91164 | -80.28071 | 10 ft | 12 kts | 90° |
| 2026-04-25 01:15 | 25.91171 | -80.27972 | 10 ft | 14 kts | 86° |
| 2026-04-25 01:15 | 25.91175 | -80.27868 | 10 ft | 12 kts | 86° |
| 2026-04-25 01:15 | 25.91180 | -80.27786 | 11 ft | 9 kts | 88° |
| 2026-04-25 01:15 | 25.91183 | -80.27718 | 11 ft | 9 kts | 87° |
| 2026-04-25 01:16 | 25.91187 | -80.27633 | 11 ft | 13 kts | 85° |
| 2026-04-25 01:16 | 25.91190 | -80.27541 | 11 ft | 11 kts | 93° |
| 2026-04-25 01:16 | 25.91195 | -80.27465 | 11 ft | 9 kts | 91° |
| 2026-04-25 01:16 | 25.91177 | -80.27402 | 11 ft | 8 kts | 142° |
| 2026-04-25 01:17 | 25.91146 | -80.27353 | 11 ft | 8 kts | 99° |
| 2026-04-25 01:17 | 25.91104 | -80.27314 | 11 ft | 9 kts | 148° |
| 2026-04-25 01:17 | 25.91074 | -80.27250 | 11 ft | 10 kts | 102° |
| 2026-04-25 01:17 | 25.91054 | -80.27222 | 11 ft | 2 kts | 185° |
| 2026-04-25 01:18 | 25.91046 | -80.27223 | 11 ft | 0 kts | 186° |